Time;durP1;ratioP1;P1;durP2;ratioP2;P2;SDS_P1;SDS_P2;PMS_P1;PMS_P2;Temp;Humidity;BMP_temperature;BMP_pressure;BME280_temperature;BME280_humidity;BME280_pressure;Samples;Min_cycle;Max_cycle;Signal;HPM_P1;HPM_P2
2022/12/26 05:10:04;;;;;;;4.30;3.73;;;11.10;99.90;;;;;;4986325;28;20435;-74
2022/12/26 05:12:31;;;;;;;4.97;3.43;;;11.10;99.90;;;;;;4967785;28;21057;-74
2022/12/26 05:14:57;;;;;;;4.10;3.30;;;11.10;99.90;;;;;;4966710;28;20952;-73
2022/12/26 05:28:41;;;;;;;2.80;2.60;;;11.30;99.90;;;;;;4967061;28;20483;-73
2022/12/26 05:31:09;;;;;;;3.73;3.27;;;11.30;99.90;;;;;;4966474;28;20487;-73
2022/12/26 05:36:24;;;;;;;3.70;2.63;;;11.40;99.90;;;;;;4966168;28;20499;-74
2022/12/26 05:38:51;;;;;;;4.93;2.70;;;11.40;99.90;;;;;;4967227;28;20471;-74
2022/12/26 05:41:18;;;;;;;3.00;2.50;;;11.40;99.90;;;;;;4966779;28;20480;-73
2022/12/26 05:43:45;;;;;;;5.50;3.00;;;11.50;99.90;;;;;;4967055;28;20449;-73
2022/12/26 05:46:11;;;;;;;3.83;2.73;;;11.50;99.90;;;;;;4966431;28;20472;-73
2022/12/26 05:48:39;;;;;;;2.83;2.47;;;11.50;99.90;;;;;;4967169;28;20453;-73
2022/12/26 05:51:06;;;;;;;6.23;2.67;;;11.50;99.90;;;;;;4966904;28;20993;-73
2022/12/26 05:53:34;;;;;;;2.87;2.63;;;11.60;99.90;;;;;;4966486;28;20452;-73
2022/12/26 05:56:04;;;;;;;2.87;2.50;;;11.70;99.90;;;;;;4965817;28;21007;-73
2022/12/26 05:58:30;;;;;;;2.57;2.37;;;11.70;99.90;;;;;;4966458;28;20531;-73
2022/12/26 06:01:06;;;;;;;6.43;3.43;;;11.70;99.90;;;;;;4966893;28;20507;-73
2022/12/26 06:03:32;;;;;;;4.70;2.97;;;11.80;99.90;;;;;;4967073;28;20469;-72
2022/12/26 06:06:01;;;;;;;3.23;2.33;;;11.80;99.90;;;;;;4966555;28;20484;-73
2022/12/26 06:08:27;;;;;;;2.97;2.37;;;11.80;99.90;;;;;;4966974;28;20452;-73
2022/12/26 06:10:54;;;;;;;3.17;2.53;;;11.80;99.90;;;;;;4966987;28;20519;-71
2022/12/26 06:13:21;;;;;;;3.57;2.87;;;11.80;99.90;;;;;;4966958;28;20457;-72
2022/12/26 06:15:48;;;;;;;3.73;3.10;;;11.80;99.90;;;;;;4965925;28;20456;-72
2022/12/26 06:18:14;;;;;;;3.30;2.53;;;12.20;99.90;;;;;;4966646;28;20456;-71
2022/12/26 06:20:41;;;;;;;3.87;2.90;;;12.20;99.90;;;;;;4967072;28;20483;-72
2022/12/26 06:23:09;;;;;;;3.50;2.67;;;12.10;99.90;;;;;;4966507;28;20457;-73
2022/12/26 06:25:36;;;;;;;3.87;2.90;;;12.10;99.90;;;;;;4966700;28;20482;-71
2022/12/26 06:28:03;;;;;;;4.90;2.40;;;12.10;99.90;;;;;;4966496;28;20460;-72
2022/12/26 06:30:30;;;;;;;3.53;2.77;;;12.10;99.90;;;;;;4966725;28;20784;-73
2022/12/26 06:32:56;;;;;;;4.60;3.00;;;12.10;99.90;;;;;;4966474;28;21219;-73
2022/12/26 06:35:23;;;;;;;3.03;2.60;;;12.10;99.90;;;;;;4966401;28;20452;-73
2022/12/26 06:37:50;;;;;;;3.63;2.93;;;12.10;99.90;;;;;;4965792;28;20464;-73
2022/12/26 06:40:18;;;;;;;3.97;2.47;;;12.10;99.90;;;;;;4966640;28;20456;-73
2022/12/26 06:42:45;;;;;;;2.70;2.40;;;12.10;99.90;;;;;;4966460;28;20464;-71
2022/12/26 06:45:12;;;;;;;3.63;2.60;;;12.10;99.90;;;;;;4966571;28;20849;-73
2022/12/26 06:47:38;;;;;;;4.63;3.00;;;12.10;99.90;;;;;;4965857;28;20463;-72
2022/12/26 06:50:06;;;;;;;3.70;3.03;;;12.10;99.90;;;;;;4966711;28;21006;-73
2022/12/26 06:52:33;;;;;;;3.70;2.50;;;12.10;99.90;;;;;;4967663;28;20936;-70
2022/12/26 06:54:59;;;;;;;2.90;2.50;;;12.10;99.90;;;;;;4970396;28;20457;-72
2022/12/26 06:57:28;;;;;;;3.50;2.67;;;12.10;99.90;;;;;;4969327;28;20503;-73
2022/12/26 06:59:54;;;;;;;4.07;2.90;;;12.10;99.90;;;;;;4969644;28;20463;-72
2022/12/26 07:02:21;;;;;;;3.80;3.10;;;12.10;99.90;;;;;;4970011;28;20871;-73
2022/12/26 07:04:48;;;;;;;3.53;2.50;;;12.20;99.90;;;;;;4969650;28;20822;-72
2022/12/26 07:07:15;;;;;;;3.00;2.60;;;12.20;99.90;;;;;;4969372;28;20475;-73
2022/12/26 07:09:41;;;;;;;5.70;3.00;;;12.10;99.90;;;;;;4970036;28;20719;-71
2022/12/26 07:12:08;;;;;;;4.00;2.87;;;12.10;99.90;;;;;;4969943;28;20507;-72
2022/12/26 07:14:36;;;;;;;4.63;3.37;;;12.10;99.90;;;;;;4969750;28;20454;-73
2022/12/26 07:17:03;;;;;;;3.20;2.73;;;12.10;99.90;;;;;;4968867;28;21411;-73
2022/12/26 07:19:30;;;;;;;4.70;2.97;;;12.10;99.90;;;;;;4969977;28;20483;-72
2022/12/26 07:21:57;;;;;;;3.50;3.10;;;12.10;99.90;;;;;;4969874;28;20595;-73
2022/12/26 07:24:23;;;;;;;5.40;3.00;;;12.10;99.90;;;;;;4969278;28;20824;-73
2022/12/26 07:26:50;;;;;;;3.27;2.87;;;12.10;99.90;;;;;;4969200;28;20822;-73
2022/12/26 07:29:17;;;;;;;3.70;2.63;;;12.10;99.90;;;;;;4970256;28;20971;-72
2022/12/26 07:31:45;;;;;;;7.40;2.60;;;12.10;99.90;;;;;;4970278;28;20477;-73
2022/12/26 07:34:12;;;;;;;4.60;2.93;;;12.10;99.90;;;;;;4969390;28;20472;-72
2022/12/26 07:36:39;;;;;;;3.53;2.90;;;12.10;99.90;;;;;;4978129;28;20488;-71
2022/12/26 07:39:06;;;;;;;3.30;2.67;;;12.10;99.90;;;;;;4980785;28;20460;-72
2022/12/26 07:44:17;;;;;;;3.53;2.63;;;12.20;99.90;;;;;;4988379;28;20427;-63
2022/12/26 07:46:46;;;;;;;2.90;2.60;;;12.20;99.90;;;;;;4987166;28;20455;-62
2022/12/26 07:49:13;;;;;;;4.90;2.53;;;12.20;99.90;;;;;;4989186;28;20518;-73
2022/12/26 07:51:41;;;;;;;3.50;2.70;;;12.20;99.90;;;;;;4988222;28;20832;-74
2022/12/26 07:54:08;;;;;;;6.20;2.83;;;12.20;99.90;;;;;;4988045;28;20475;-74
2022/12/26 07:56:35;;;;;;;3.00;2.70;;;12.20;99.90;;;;;;4986608;28;20460;-76
2022/12/26 07:59:02;;;;;;;3.03;2.73;;;12.30;99.90;;;;;;4988772;28;20231;-75
2022/12/26 08:01:29;;;;;;;4.13;2.97;;;12.30;99.90;;;;;;4988019;28;21030;-76
2022/12/26 08:03:57;;;;;;;3.40;3.03;;;12.30;99.90;;;;;;4986891;28;20468;-75
2022/12/26 08:06:24;;;;;;;4.30;3.03;;;12.30;99.90;;;;;;4987652;28;20458;-74
2022/12/26 08:08:52;;;;;;;4.67;3.73;;;12.30;99.90;;;;;;4988119;28;20459;-74
2022/12/26 08:11:21;;;;;;;4.73;3.43;;;12.30;99.90;;;;;;4988064;28;20536;-77
2022/12/26 08:13:48;;;;;;;4.90;3.33;;;12.20;99.90;;;;;;4982423;28;20459;-75
2022/12/26 08:16:16;;;;;;;5.83;3.40;;;12.20;99.90;;;;;;4969408;28;20492;-76
2022/12/26 08:18:43;;;;;;;4.80;3.30;;;12.20;99.90;;;;;;4967401;28;20448;-74
2022/12/26 08:21:12;;;;;;;4.57;3.33;;;12.10;99.90;;;;;;4985936;28;20573;-75
2022/12/26 08:23:39;;;;;;;6.73;3.60;;;12.20;99.90;;;;;;4987081;28;20487;-75
2022/12/26 08:26:08;;;;;;;4.70;3.17;;;12.10;99.90;;;;;;4985982;28;20478;-76
2022/12/26 08:28:35;;;;;;;7.17;3.40;;;12.10;99.90;;;;;;4987009;28;20467;-75
2022/12/26 08:31:05;;;;;;;4.33;2.80;;;12.10;99.90;;;;;;4986768;28;20471;-74
2022/12/26 08:33:32;;;;;;;4.80;3.30;;;12.10;99.90;;;;;;4986503;28;20459;-74
2022/12/26 08:36:02;;;;;;;3.90;3.40;;;12.00;99.90;;;;;;4986124;28;20458;-72
2022/12/26 08:38:30;;;;;;;5.87;3.57;;;12.10;99.90;;;;;;4986884;28;20459;-75
2022/12/26 08:40:56;;;;;;;3.80;3.40;;;12.10;99.90;;;;;;4986458;28;20482;-75
2022/12/26 08:43:24;;;;;;;4.40;3.87;;;12.00;99.90;;;;;;4986192;28;21372;-74
2022/12/26 08:45:58;;;;;;;4.67;3.40;;;12.00;99.90;;;;;;4986280;28;20459;-71
2022/12/26 08:48:25;;;;;;;4.20;3.80;;;12.00;99.90;;;;;;4986004;28;20431;-74
2022/12/26 08:50:56;;;;;;;7.20;4.30;;;12.00;99.90;;;;;;4986257;28;20482;-74
2022/12/26 08:53:23;;;;;;;6.70;4.93;;;11.90;99.90;;;;;;4986139;28;20452;-75
2022/12/26 08:55:52;;;;;;;5.87;4.17;;;11.90;99.90;;;;;;4983025;28;20456;-71
2022/12/26 08:58:19;;;;;;;6.70;5.47;;;11.80;99.90;;;;;;4976868;28;20443;-74
2022/12/26 09:00:45;;;;;;;8.20;4.70;;;11.80;99.90;;;;;;4975847;28;20473;-74
2022/12/26 09:03:12;;;;;;;10.37;4.83;;;11.80;99.90;;;;;;4975092;28;20448;-74
2022/12/26 09:05:39;;;;;;;10.10;5.20;;;11.70;99.90;;;;;;4976182;28;20448;-71
2022/12/26 09:08:06;;;;;;;7.17;5.63;;;11.70;99.90;;;;;;4971747;28;20456;-75
2022/12/26 09:10:33;;;;;;;11.27;5.67;;;11.70;99.90;;;;;;4966883;28;20453;-75
2022/12/26 09:13:01;;;;;;;9.73;4.50;;;11.60;99.90;;;;;;4966510;28;20457;-77
2022/12/26 09:15:28;;;;;;;6.27;3.80;;;11.50;99.90;;;;;;4966148;28;20448;-75
2022/12/26 09:17:54;;;;;;;6.70;4.33;;;11.40;99.90;;;;;;4965759;28;20496;-72
2022/12/26 09:20:22;;;;;;;5.63;3.77;;;11.30;99.90;;;;;;4965914;28;20460;-74
2022/12/26 09:22:51;;;;;;;4.10;3.60;;;11.10;99.90;;;;;;4966025;28;20455;-74
2022/12/26 09:25:20;;;;;;;4.73;4.10;;;11.10;99.90;;;;;;4967684;28;20453;-74
2022/12/26 09:27:46;;;;;;;6.90;4.20;;;11.10;99.90;;;;;;4986475;28;20448;-77
2022/12/26 09:30:15;;;;;;;5.97;4.67;;;11.00;99.90;;;;;;4986357;28;20464;-76
2022/12/26 09:32:42;;;;;;;6.63;4.57;;;10.90;99.90;;;;;;4986158;28;20943;-76
2022/12/26 09:35:09;;;;;;;7.87;5.40;;;10.90;99.90;;;;;;4986462;28;20471;-75
2022/12/26 09:37:36;;;;;;;6.90;4.80;;;10.90;99.90;;;;;;4985502;28;20495;-75
2022/12/26 09:40:04;;;;;;;5.97;5.00;;;10.90;99.90;;;;;;4986094;28;20821;-75
2022/12/26 09:42:43;;;;;;;10.13;4.60;;;10.90;99.90;;;;;;4985978;28;20502;-76
2022/12/26 09:45:14;;;;;;;6.93;4.30;;;10.90;99.90;;;;;;4974282;28;20464;-75
2022/12/26 09:47:50;;;;;;;9.30;5.20;;;10.90;99.90;;;;;;4966135;28;20448;-77
2022/12/26 09:50:25;;;;;;;8.00;5.30;;;10.90;99.90;;;;;;4966668;28;20448;-76
2022/12/26 09:52:56;;;;;;;9.40;4.87;;;10.80;99.90;;;;;;4966879;28;20498;-76
2022/12/26 09:55:40;;;;;;;9.90;5.87;;;10.80;99.90;;;;;;4968456;28;20456;-77
2022/12/26 09:58:15;;;;;;;9.33;5.70;;;10.70;99.90;;;;;;4966969;28;20506;-77
2022/12/26 10:00:48;;;;;;;11.37;5.40;;;10.70;99.90;;;;;;4966611;28;20483;-76
2022/12/26 10:03:17;;;;;;;9.43;5.93;;;10.60;99.90;;;;;;4966839;28;20463;-77
2022/12/26 10:05:57;;;;;;;6.53;5.80;;;10.60;99.90;;;;;;4966733;28;20483;-76
2022/12/26 10:08:36;;;;;;;7.37;5.37;;;10.60;99.90;;;;;;4965913;28;20440;-74
2022/12/26 10:11:07;;;;;;;8.97;6.30;;;10.60;99.90;;;;;;4966638;28;20485;-75
2022/12/26 10:13:39;;;;;;;8.60;4.93;;;10.60;99.90;;;;;;4966135;28;20456;-72
2022/12/26 10:16:11;;;;;;;7.83;5.67;;;10.60;99.90;;;;;;4965651;28;21254;-74
2022/12/26 10:18:49;;;;;;;5.67;4.90;;;10.50;99.90;;;;;;4966502;28;20855;-74
2022/12/26 10:21:29;;;;;;;6.40;5.40;;;10.50;99.90;;;;;;4966642;28;20482;-75
2022/12/26 10:23:59;;;;;;;7.47;5.50;;;10.50;99.90;;;;;;4966497;28;20452;-62
2022/12/26 10:26:31;;;;;;;8.23;5.87;;;10.50;99.90;;;;;;4965714;28;20447;-62
2022/12/26 10:29:02;;;;;;;9.77;6.30;;;10.60;99.90;;;;;;4969600;28;20460;-74
2022/12/26 10:31:34;;;;;;;10.63;5.87;;;10.60;99.90;;;;;;4970478;28;20833;-73
2022/12/26 10:34:11;;;;;;;8.23;6.03;;;10.50;99.90;;;;;;4970987;28;20450;-71
2022/12/26 10:36:42;;;;;;;7.60;5.87;;;10.60;99.90;;;;;;4968166;28;20460;-73
2022/12/26 10:39:16;;;;;;;7.00;5.67;;;10.60;99.90;;;;;;4968455;28;20453;-74
2022/12/26 10:41:47;;;;;;;7.40;4.60;;;10.80;99.90;;;;;;4969204;28;21360;-72
2022/12/26 10:44:16;;;;;;;7.17;4.60;;;10.90;99.90;;;;;;4969419;28;20436;-74
2022/12/26 10:47:03;;;;;;;6.70;4.53;;;10.80;99.90;;;;;;4968930;28;20456;-74
2022/12/26 10:49:31;;;;;;;6.37;5.17;;;10.70;99.90;;;;;;4969135;28;20948;-73
2022/12/26 10:52:01;;;;;;;4.67;3.57;;;10.70;99.90;;;;;;4969548;28;20478;-73
2022/12/26 10:54:31;;;;;;;4.90;4.03;;;10.70;99.90;;;;;;4969009;28;20455;-74
2022/12/26 10:57:00;;;;;;;6.13;4.23;;;10.70;99.90;;;;;;4968580;28;20476;-74
2022/12/26 10:59:38;;;;;;;6.17;3.93;;;10.70;99.90;;;;;;4969119;28;20895;-74
2022/12/26 11:02:15;;;;;;;6.73;4.47;;;10.70;99.90;;;;;;4967903;28;20480;-73
2022/12/26 11:05:01;;;;;;;5.77;4.33;;;10.70;99.90;;;;;;4969206;28;20441;-75
2022/12/26 11:07:32;;;;;;;5.10;4.43;;;10.70;99.90;;;;;;4968177;28;20436;-74
2022/12/26 11:09:59;;;;;;;6.47;4.20;;;10.60;99.90;;;;;;4969330;28;20437;-73
2022/12/26 11:12:38;;;;;;;6.27;4.30;;;10.60;99.90;;;;;;4969116;28;20852;-74
2022/12/26 11:15:17;;;;;;;5.30;4.80;;;10.70;99.90;;;;;;4969127;28;20440;-72
2022/12/26 11:17:45;;;;;;;7.90;6.00;;;10.70;99.90;;;;;;4967801;28;20502;-74
2022/12/26 11:20:27;;;;;;;6.57;5.63;;;10.80;99.90;;;;;;4970224;28;20460;-73
2022/12/26 11:22:54;;;;;;;6.27;5.20;;;10.80;99.90;;;;;;4968896;28;20495;-74
2022/12/26 11:25:23;;;;;;;8.57;6.90;;;10.90;99.90;;;;;;4968857;28;20459;-74
2022/12/26 11:27:52;;;;;;;9.63;7.27;;;10.90;99.90;;;;;;4968475;28;20459;-74
2022/12/26 11:30:24;;;;;;;8.97;7.30;;;10.90;99.90;;;;;;4968955;28;20471;-74
2022/12/26 11:33:05;;;;;;;25.37;22.87;;;10.90;99.90;;;;;;4968490;28;20459;-74
2022/12/26 11:35:36;;;;;;;14.10;12.60;;;11.00;99.90;;;;;;4968490;28;20428;-74
2022/12/26 11:38:33;;;;;;;9.23;8.00;;;11.00;99.90;;;;;;4967580;28;20480;-74
2022/12/26 11:43:46;;;;;;;33.30;28.60;;;11.00;99.90;;;;;;4968547;28;20940;-74
2022/12/26 11:46:13;;;;;;;25.00;20.80;;;11.10;99.90;;;;;;4967968;28;20463;-74
2022/12/26 11:48:40;;;;;;;11.73;7.10;;;11.10;99.90;;;;;;4968601;28;20473;-75
2022/12/26 11:51:09;;;;;;;6.17;5.33;;;11.10;99.90;;;;;;4968213;28;20480;-75
2022/12/26 11:53:36;;;;;;;7.10;5.30;;;11.10;99.90;;;;;;4968171;28;20456;-74
2022/12/26 11:56:05;;;;;;;6.90;5.27;;;11.10;99.90;;;;;;4967947;28;20456;-74
2022/12/26 11:58:34;;;;;;;7.40;5.70;;;11.00;99.90;;;;;;4968435;28;20502;-74
2022/12/26 12:01:16;;;;;;;8.70;6.27;;;10.90;99.90;;;;;;4968293;28;20497;-74
2022/12/26 12:03:46;;;;;;;9.20;6.83;;;10.80;99.90;;;;;;4968282;28;20533;-75
2022/12/26 12:06:48;;;;;;;6.80;5.53;;;10.70;99.90;;;;;;4967301;28;20464;-74
2022/12/26 12:09:21;;;;;;;8.13;5.93;;;10.70;99.90;;;;;;4968329;28;20452;-74
2022/12/26 12:11:56;;;;;;;8.10;5.60;;;10.70;99.90;;;;;;4968151;28;20851;-74
2022/12/26 12:14:33;;;;;;;8.90;6.50;;;10.70;99.90;;;;;;4968211;28;20932;-74
2022/12/26 12:17:12;;;;;;;9.00;5.53;;;10.70;99.90;;;;;;4967451;28;20520;-75
2022/12/26 12:19:50;;;;;;;8.03;5.60;;;10.80;99.90;;;;;;4968116;28;20445;-74
2022/12/26 12:22:43;;;;;;;6.13;4.97;;;10.80;99.90;;;;;;4967847;28;20479;-75
2022/12/26 12:25:27;;;;;;;6.57;5.20;;;10.80;99.90;;;;;;4933235;28;20831;-75
2022/12/26 12:28:03;;;;;;;8.00;5.90;;;10.90;99.90;;;;;;4966853;28;20457;-75
2022/12/26 12:30:36;;;;;;;8.77;5.40;;;10.90;99.90;;;;;;4967516;28;20455;-75
2022/12/26 12:33:28;;;;;;;10.33;6.30;;;11.00;99.90;;;;;;4967441;28;20463;-75
2022/12/26 12:36:08;;;;;;;8.97;6.43;;;11.00;99.90;;;;;;4967323;28;20445;-75
2022/12/26 12:38:49;;;;;;;6.13;4.90;;;11.10;99.90;;;;;;4967747;28;20507;-75
2022/12/26 12:41:28;;;;;;;6.20;4.67;;;11.10;99.90;;;;;;4967403;28;20495;-75
2022/12/26 12:44:01;;;;;;;6.17;4.50;;;11.10;99.90;;;;;;4967278;28;20460;-75
2022/12/26 12:46:37;;;;;;;9.07;4.90;;;11.10;99.90;;;;;;4966681;28;20805;-75
2022/12/26 12:49:20;;;;;;;5.13;3.60;;;11.10;99.90;;;;;;4967479;28;20452;-75
2022/12/26 12:51:55;;;;;;;10.47;4.40;;;11.00;99.90;;;;;;4966986;28;20567;-75
2022/12/26 12:54:54;;;;;;;10.57;6.43;;;11.00;99.90;;;;;;4967240;28;20454;-75
2022/12/26 12:57:28;;;;;;;12.43;7.70;;;11.00;99.90;;;;;;4965906;28;20469;-75
2022/12/26 13:00:05;;;;;;;5.13;3.50;;;11.00;99.90;;;;;;4967603;28;20813;-75
2022/12/26 13:02:39;;;;;;;3.40;3.10;;;11.00;99.90;;;;;;4966973;28;20488;-75
2022/12/26 13:05:17;;;;;;;4.67;3.43;;;10.90;99.90;;;;;;4966806;28;20941;-75
2022/12/26 13:07:48;;;;;;;3.90;2.70;;;11.00;99.90;;;;;;4964573;28;20452;-75
2022/12/26 13:10:21;;;;;;;5.67;2.90;;;11.00;99.90;;;;;;4966570;28;20968;-75
2022/12/26 13:12:50;;;;;;;2.77;2.00;;;11.00;99.90;;;;;;4967065;28;20448;-75
2022/12/26 13:15:29;;;;;;;5.47;3.07;;;11.00;99.90;;;;;;4967023;28;20459;-75
2022/12/26 13:18:02;;;;;;;7.93;2.43;;;11.00;99.90;;;;;;4965770;28;21023;-75
2022/12/26 13:20:36;;;;;;;2.37;2.03;;;11.00;99.90;;;;;;4965580;28;20441;-75
2022/12/26 13:26:08;;;;;;;3.93;2.80;;;11.00;99.90;;;;;;4966582;28;20423;-75
2022/12/26 13:28:44;;;;;;;10.93;3.17;;;11.10;99.90;;;;;;4966777;28;20436;-75
2022/12/26 13:31:13;;;;;;;4.70;3.00;;;11.00;99.90;;;;;;4966682;28;20482;-75
2022/12/26 13:33:42;;;;;;;4.63;3.70;;;11.10;99.90;;;;;;4966476;28;20453;-75
2022/12/26 13:36:09;;;;;;;3.30;3.00;;;11.10;99.90;;;;;;4965984;28;20448;-75
2022/12/26 13:39:15;;;;;;;5.43;3.30;;;11.10;99.90;;;;;;4965750;28;20492;-75
2022/12/26 13:44:33;;;;;;;4.27;3.27;;;11.10;99.90;;;;;;4966347;28;20448;-75
2022/12/26 13:47:00;;;;;;;4.10;3.13;;;11.10;99.90;;;;;;4965482;28;20462;-75
2022/12/26 13:49:35;;;;;;;5.93;3.20;;;11.10;99.90;;;;;;4966247;28;20455;-75
2022/12/26 13:52:31;;;;;;;8.33;4.53;;;11.10;99.90;;;;;;4966332;28;20468;-75
2022/12/26 13:55:31;;;;;;;3.73;3.00;;;11.10;99.90;;;;;;4966321;28;20443;-75
2022/12/26 13:58:20;;;;;;;4.30;2.50;;;11.10;99.90;;;;;;4965607;28;20519;-75
2022/12/26 14:00:49;;;;;;;3.23;2.83;;;11.10;99.90;;;;;;4966006;28;20503;-75
2022/12/26 14:03:45;;;;;;;3.20;2.40;;;11.10;99.90;;;;;;4970404;28;20459;-75
2022/12/26 14:06:43;;;;;;;3.50;2.80;;;11.10;99.90;;;;;;4969749;28;20433;-75
2022/12/26 14:09:31;;;;;;;3.80;2.80;;;11.00;99.90;;;;;;4970380;28;20766;-75
2022/12/26 14:12:10;;;;;;;2.80;2.30;;;10.90;99.90;;;;;;4966881;28;21027;-75
2022/12/26 14:14:52;;;;;;;4.33;2.20;;;10.90;99.90;;;;;;4970165;28;20827;-74
2022/12/26 14:17:32;;;;;;;2.50;2.07;;;10.90;99.90;;;;;;4969380;28;20452;-75
2022/12/26 14:20:08;;;;;;;2.97;2.27;;;10.90;99.90;;;;;;4968734;28;20823;-75
2022/12/26 14:22:45;;;;;;;3.73;1.83;;;10.90;99.90;;;;;;4970013;28;20476;-75
2022/12/26 14:25:22;;;;;;;2.30;2.10;;;10.90;99.90;;;;;;4970106;28;20440;-75
2022/12/26 14:27:55;;;;;;;1.60;1.50;;;10.90;99.90;;;;;;4969650;28;20428;-75
2022/12/26 14:30:29;;;;;;;2.33;2.13;;;10.90;99.90;;;;;;4969590;28;20463;-75
2022/12/26 14:33:21;;;;;;;3.87;2.50;;;10.90;99.90;;;;;;4970347;28;20475;-75
2022/12/26 14:36:00;;;;;;;3.23;2.27;;;10.90;99.90;;;;;;4969492;28;20444;-75
2022/12/26 14:38:35;;;;;;;2.57;2.20;;;11.00;99.90;;;;;;4969393;28;20851;-75
2022/12/26 14:41:05;;;;;;;1.73;1.60;;;10.90;99.90;;;;;;4969516;28;20475;-75
2022/12/26 14:43:35;;;;;;;1.57;1.40;;;10.90;99.90;;;;;;4969911;28;20432;-75
2022/12/26 14:46:09;;;;;;;7.53;1.73;;;10.90;99.90;;;;;;4969311;28;20441;-75
2022/12/26 14:48:54;;;;;;;1.70;1.60;;;10.90;99.90;;;;;;4969458;28;20456;-75
2022/12/26 14:51:39;;;;;;;2.47;1.90;;;10.90;99.90;;;;;;4969377;28;20835;-75
2022/12/26 14:54:36;;;;;;;4.40;2.83;;;10.90;99.90;;;;;;4969656;28;20499;-75
2022/12/26 14:57:33;;;;;;;4.17;2.57;;;10.90;99.90;;;;;;4968919;28;20460;-75
2022/12/26 15:00:14;;;;;;;4.47;2.37;;;10.90;99.90;;;;;;4952342;28;20511;-73
2022/12/26 15:02:44;;;;;;;3.90;2.40;;;10.90;99.90;;;;;;4969226;28;20488;-73
2022/12/26 15:05:14;;;;;;;4.30;2.13;;;10.90;99.90;;;;;;4969604;28;20463;-73
2022/12/26 15:08:18;;;;;;;2.50;1.93;;;11.00;99.90;;;;;;4968930;28;20468;-74
2022/12/26 15:11:18;;;;;;;2.50;1.70;;;10.90;99.90;;;;;;4969164;28;20471;-73
2022/12/26 15:14:20;;;;;;;2.33;2.13;;;10.90;99.90;;;;;;4949071;28;20461;-73
2022/12/26 15:17:02;;;;;;;2.63;2.10;;;10.90;99.90;;;;;;4965667;28;20479;-73
2022/12/26 15:20:11;;;;;;;1.90;1.60;;;10.90;99.90;;;;;;4967665;28;20481;-74
2022/12/26 15:23:13;;;;;;;3.40;2.00;;;10.90;99.90;;;;;;4889756;29;20483;-74
2022/12/26 15:26:09;;;;;;;2.17;1.97;;;10.90;99.90;;;;;;4968350;28;20565;-74
2022/12/26 15:29:21;;;;;;;2.43;2.23;;;10.90;99.90;;;;;;4968902;28;20453;-73
2022/12/26 15:32:02;;;;;;;3.53;2.93;;;10.90;99.90;;;;;;4968731;28;20491;-74
2022/12/26 15:34:42;;;;;;;3.30;2.97;;;10.90;99.90;;;;;;4968949;28;20996;-73
2022/12/26 15:37:20;;;;;;;3.57;2.30;;;10.90;99.90;;;;;;4968062;28;20461;-73
2022/12/26 15:39:53;;;;;;;3.27;2.33;;;10.80;99.90;;;;;;4968851;28;20586;-73
2022/12/26 15:42:41;;;;;;;2.67;2.17;;;10.90;99.90;;;;;;4968700;28;20760;-73
2022/12/26 15:45:37;;;;;;;2.97;2.60;;;10.90;99.90;;;;;;4968908;28;20890;-74
2022/12/26 15:48:11;;;;;;;2.73;2.40;;;10.90;99.90;;;;;;4964595;28;20984;-74
2022/12/26 15:50:54;;;;;;;2.90;2.40;;;10.90;99.90;;;;;;4968194;28;20480;-73
2022/12/26 15:53:31;;;;;;;2.37;1.80;;;10.90;99.90;;;;;;4968347;28;20463;-74
2022/12/26 15:56:15;;;;;;;2.30;2.00;;;10.80;99.90;;;;;;4967710;28;20448;-75
2022/12/26 15:59:08;;;;;;;2.23;2.03;;;10.90;99.90;;;;;;4968046;28;21216;-76
2022/12/26 16:01:40;;;;;;;2.03;1.80;;;10.90;99.90;;;;;;4968237;28;20488;-74
2022/12/26 16:04:13;;;;;;;2.40;2.10;;;10.90;99.90;;;;;;4968335;28;20457;-74
2022/12/26 16:06:58;;;;;;;2.80;2.30;;;10.80;99.90;;;;;;4966970;28;20453;-74
2022/12/26 16:09:40;;;;;;;2.07;1.87;;;10.80;99.90;;;;;;4968687;28;20464;-74
2022/12/26 16:12:23;;;;;;;2.50;2.20;;;10.80;99.90;;;;;;4968219;28;20565;-74
2022/12/26 16:14:59;;;;;;;2.77;2.10;;;10.70;99.90;;;;;;4967822;28;20467;-74
2022/12/26 16:17:27;;;;;;;3.23;2.43;;;10.70;99.90;;;;;;4967288;28;20475;-74
2022/12/26 16:19:54;;;;;;;3.03;2.30;;;10.70;99.90;;;;;;4966183;28;20499;-74
2022/12/26 16:22:45;;;;;;;1.97;1.87;;;10.70;99.90;;;;;;4967931;28;20476;-74
2022/12/26 16:25:14;;;;;;;2.83;2.23;;;10.70;99.90;;;;;;4967220;28;20465;-74
2022/12/26 16:27:41;;;;;;;2.57;2.37;;;10.70;99.90;;;;;;4967557;28;20777;-74
2022/12/26 16:30:16;;;;;;;2.23;2.03;;;10.70;99.90;;;;;;4967649;28;20453;-74
2022/12/26 16:32:44;;;;;;;2.87;2.57;;;10.80;99.90;;;;;;4967668;28;20472;-74
2022/12/26 16:35:19;;;;;;;2.23;2.03;;;10.80;99.90;;;;;;4967577;28;20948;-74
2022/12/26 16:37:48;;;;;;;4.03;2.37;;;10.80;99.90;;;;;;4966819;28;20491;-74
2022/12/26 16:40:24;;;;;;;3.40;2.63;;;10.80;99.90;;;;;;4967449;28;21035;-74
2022/12/26 16:43:03;;;;;;;3.90;2.93;;;10.80;99.90;;;;;;4967452;28;20456;-74
2022/12/26 16:45:33;;;;;;;3.90;2.70;;;10.70;99.90;;;;;;4967533;28;20507;-74
2022/12/26 16:48:00;;;;;;;2.77;2.40;;;10.70;99.90;;;;;;4966498;28;20452;-74
2022/12/26 16:50:31;;;;;;;3.57;2.53;;;10.70;99.90;;;;;;4966910;28;20455;-74
2022/12/26 16:53:12;;;;;;;3.37;3.00;;;10.80;99.90;;;;;;4966946;28;20456;-74
2022/12/26 16:55:42;;;;;;;3.60;2.50;;;10.80;99.90;;;;;;4967345;28;20904;-74
2022/12/26 16:58:20;;;;;;;3.77;2.50;;;10.80;99.90;;;;;;4966875;28;20470;-74
2022/12/26 17:01:07;;;;;;;5.80;3.57;;;10.80;99.90;;;;;;4966716;28;20491;-74
2022/12/26 17:03:44;;;;;;;4.33;3.20;;;10.70;99.90;;;;;;4967133;28;20480;-74
2022/12/26 17:06:14;;;;;;;5.07;3.40;;;10.60;99.90;;;;;;4966071;28;20460;-74
2022/12/26 17:08:48;;;;;;;3.23;2.93;;;10.60;99.90;;;;;;4967385;28;20721;-74
2022/12/26 17:11:15;;;;;;;5.50;3.40;;;10.60;99.90;;;;;;4966669;28;20472;-74
2022/12/26 17:13:49;;;;;;;4.50;2.97;;;10.60;99.90;;;;;;4966596;28;20459;-74
2022/12/26 17:16:16;;;;;;;7.23;3.40;;;10.60;99.90;;;;;;4965695;28;21026;-74
2022/12/26 17:18:47;;;;;;;4.50;3.57;;;10.70;99.90;;;;;;4966560;28;20463;-74
2022/12/26 17:21:32;;;;;;;5.70;4.03;;;10.70;99.90;;;;;;4966878;28;20480;-74
2022/12/26 17:24:28;;;;;;;6.03;3.70;;;10.70;99.90;;;;;;4966760;28;20444;-74
2022/12/26 17:27:16;;;;;;;8.07;6.10;;;10.70;99.90;;;;;;4965942;28;20452;-74
2022/12/26 17:29:53;;;;;;;20.53;11.03;;;10.70;99.90;;;;;;4965923;28;20453;-75
2022/12/26 17:32:27;;;;;;;6.80;4.63;;;10.70;99.90;;;;;;4966458;28;21008;-74
2022/12/26 17:34:53;;;;;;;6.10;4.03;;;10.70;99.90;;;;;;4967433;28;20448;-74
2022/12/26 17:37:23;;;;;;;7.83;5.43;;;10.60;99.90;;;;;;4963289;28;20976;-74
2022/12/26 17:39:54;;;;;;;5.50;3.40;;;10.50;99.90;;;;;;4944318;28;20495;-74
2022/12/26 17:42:21;;;;;;;4.67;3.90;;;10.60;99.90;;;;;;4936874;28;20891;-74
2022/12/26 17:44:48;;;;;;;5.17;2.97;;;10.50;99.90;;;;;;4949097;29;20465;-74
2022/12/26 17:47:19;;;;;;;3.17;2.87;;;10.40;99.90;;;;;;4947593;29;20465;-75
2022/12/26 17:49:46;;;;;;;3.57;2.67;;;10.30;99.90;;;;;;4948817;29;20438;-74
2022/12/26 17:52:15;;;;;;;2.87;2.37;;;10.20;99.90;;;;;;4948305;29;20499;-74
2022/12/26 17:54:42;;;;;;;2.60;2.40;;;10.20;99.90;;;;;;4948805;28;20458;-74
2022/12/26 17:57:17;;;;;;;5.40;4.33;;;10.10;99.90;;;;;;4948239;29;20452;-74
2022/12/26 17:59:44;;;;;;;6.10;4.17;;;10.10;99.90;;;;;;4948354;29;20492;-74
2022/12/26 18:02:11;;;;;;;3.93;3.50;;;10.10;99.90;;;;;;4947582;29;20490;-74
2022/12/26 18:04:38;;;;;;;4.57;3.90;;;10.10;99.90;;;;;;4948048;29;20461;-74
2022/12/26 18:07:05;;;;;;;5.27;4.03;;;10.00;99.90;;;;;;4947067;29;20453;-75
2022/12/26 18:09:32;;;;;;;5.03;3.90;;;10.00;99.90;;;;;;4947670;28;20453;-75
2022/12/26 18:11:59;;;;;;;4.17;3.73;;;10.00;99.90;;;;;;4947552;29;20870;-74
2022/12/26 18:14:27;;;;;;;5.10;3.97;;;10.00;99.90;;;;;;4947622;29;20465;-74
2022/12/26 18:16:54;;;;;;;5.20;4.57;;;10.00;99.90;;;;;;4944953;29;20956;-74
2022/12/26 18:19:21;;;;;;;4.87;4.03;;;10.00;99.90;;;;;;4946608;29;20503;-74
2022/12/26 18:21:48;;;;;;;7.83;4.63;;;10.00;99.90;;;;;;4947046;29;20573;-74
2022/12/26 18:24:14;;;;;;;3.10;2.83;;;10.00;99.90;;;;;;4945993;29;20832;-74
2022/12/26 18:26:41;;;;;;;3.73;3.00;;;9.90;99.90;;;;;;4945180;29;20467;-74
2022/12/26 18:29:10;;;;;;;3.73;2.60;;;10.00;99.90;;;;;;4945500;28;20453;-74
2022/12/26 18:31:38;;;;;;;4.97;3.00;;;10.00;99.90;;;;;;4945832;29;20481;-74
2022/12/26 18:34:05;;;;;;;3.93;3.10;;;9.90;99.90;;;;;;4946200;29;20465;-74
2022/12/26 18:36:34;;;;;;;3.47;2.50;;;9.90;99.90;;;;;;4944695;29;20449;-74
2022/12/26 18:39:01;;;;;;;4.50;2.60;;;9.90;99.90;;;;;;4945866;29;20465;-73
2022/12/26 18:41:28;;;;;;;2.87;2.57;;;9.90;99.90;;;;;;4945477;29;20485;-74
2022/12/26 18:43:56;;;;;;;3.03;2.40;;;9.90;99.90;;;;;;4945890;29;20486;-74
2022/12/26 18:46:25;;;;;;;2.63;2.07;;;9.90;99.90;;;;;;4944720;29;20563;-74
2022/12/26 18:48:55;;;;;;;2.07;1.90;;;9.90;99.90;;;;;;4947032;28;20472;-74
2022/12/26 18:51:22;;;;;;;2.37;2.00;;;9.90;99.90;;;;;;4949086;29;20540;-74